N12KBM -KSAN
Flight info
| Callsign | N12KBM |
|---|---|
| Flight time | N/A |
| Altitude | VFR |
| Route | |
| Aircraft | P28B/L-DOV/C |
Departure
| Time | N/A |
|---|---|
| Airport | - |
Arrival
| Time | 2026-05-08 04:11 |
|---|---|
| Airport | San Diego International Airport (KSAN) |
| Time | Latitude | Longitude | Altitude | Speed | Heading |
|---|---|---|---|---|---|
| 2026-05-08 04:11 | 32.73422 | -117.17883 | 23 ft | 0 kts | 18° |
| 2026-05-08 04:12 | 32.73420 | -117.17898 | 23 ft | 0 kts | 205° |
| 2026-05-08 04:13 | 32.73380 | -117.17910 | 23 ft | 16 kts | 219° |
| 2026-05-08 04:13 | 32.73284 | -117.17976 | 21 ft | 25 kts | 194° |
| 2026-05-08 04:13 | 32.73249 | -117.18053 | 19 ft | 13 kts | 290° |
| 2026-05-08 04:14 | 32.73269 | -117.18163 | 20 ft | 0 kts | 251° |
| 2026-05-08 04:14 | 32.73259 | -117.18179 | 20 ft | 0 kts | 226° |
| 2026-05-08 04:14 | 32.73206 | -117.18205 | 20 ft | 21 kts | 205° |
| 2026-05-08 04:15 | 32.73218 | -117.18400 | 20 ft | 53 kts | 285° |
| 2026-05-08 04:15 | 32.73349 | -117.18986 | 169 ft | 81 kts | 284° |
| 2026-05-08 04:15 | 32.73520 | -117.19684 | 377 ft | 99 kts | 284° |
| 2026-05-08 04:15 | 32.73711 | -117.20544 | 618 ft | 108 kts | 291° |
| 2026-05-08 04:16 | 32.74257 | -117.21094 | 907 ft | 115 kts | 348° |
| 2026-05-08 04:16 | 32.75057 | -117.20678 | 727 ft | 149 kts | 56° |
| 2026-05-08 04:16 | 32.75245 | -117.19488 | 866 ft | 142 kts | 88° |
| 2026-05-08 04:16 | 32.75219 | -117.18295 | 991 ft | 146 kts | 95° |
| 2026-05-08 04:17 | 32.75092 | -117.17058 | 989 ft | 151 kts | 99° |
| 2026-05-08 04:17 | 32.74810 | -117.15900 | 1092 ft | 149 kts | 123° |
| 2026-05-08 04:17 | 32.74073 | -117.15106 | 1276 ft | 134 kts | 149° |
| 2026-05-08 04:17 | 32.73235 | -117.14845 | 1326 ft | 120 kts | 177° |
| 2026-05-08 04:18 | 32.72487 | -117.14944 | 1191 ft | 92 kts | 217° |
| 2026-05-08 04:18 | 32.72450 | -117.15659 | 695 ft | 101 kts | 293° |
| 2026-05-08 04:18 | 32.72713 | -117.16352 | 419 ft | 84 kts | 289° |
| 2026-05-08 04:18 | 32.72862 | -117.16958 | 259 ft | 70 kts | 286° |
| 2026-05-08 04:19 | 32.72997 | -117.17471 | 145 ft | 66 kts | 285° |
| 2026-05-08 04:19 | 32.73115 | -117.17992 | 68 ft | 64 kts | 285° |
| 2026-05-08 04:19 | 32.73235 | -117.18464 | 21 ft | 49 kts | 288° |
| 2026-05-08 04:19 | 32.73362 | -117.18942 | 147 ft | 72 kts | 289° |
| 2026-05-08 04:20 | 32.73534 | -117.19546 | 413 ft | 80 kts | 284° |
| 2026-05-08 04:20 | 32.73765 | -117.20192 | 632 ft | 91 kts | 335° |
| 2026-05-08 04:20 | 32.74230 | -117.19717 | 713 ft | 115 kts | 71° |
| 2026-05-08 04:20 | 32.74424 | -117.18754 | 818 ft | 123 kts | 78° |
| 2026-05-08 04:21 | 32.74556 | -117.17763 | 965 ft | 126 kts | 81° |
| 2026-05-08 04:21 | 32.74647 | -117.16702 | 978 ft | 129 kts | 85° |
| 2026-05-08 04:21 | 32.74658 | -117.15650 | 1076 ft | 130 kts | 101° |
| 2026-05-08 04:21 | 32.74138 | -117.14772 | 949 ft | 139 kts | 156° |
| 2026-05-08 04:22 | 32.73227 | -117.14665 | 944 ft | 128 kts | 185° |
| 2026-05-08 04:22 | 32.72394 | -117.14939 | 853 ft | 126 kts | 221° |
| 2026-05-08 04:22 | 32.72458 | -117.15867 | 622 ft | 113 kts | 301° |
| 2026-05-08 04:22 | 32.72768 | -117.16623 | 363 ft | 93 kts | 288° |
| 2026-05-08 04:23 | 32.72934 | -117.17295 | 207 ft | 78 kts | 280° |
| 2026-05-08 04:23 | 32.73085 | -117.17864 | 72 ft | 67 kts | 282° |
| 2026-05-08 04:23 | 32.73206 | -117.18351 | 22 ft | 54 kts | 282° |
| 2026-05-08 04:23 | 32.73334 | -117.18885 | 169 ft | 78 kts | 284° |
| 2026-05-08 04:24 | 32.73500 | -117.19547 | 393 ft | 88 kts | 279° |
| 2026-05-08 04:24 | 32.73640 | -117.20227 | 799 ft | 74 kts | 278° |
| 2026-05-08 04:24 | 32.73978 | -117.20719 | 953 ft | 96 kts | 343° |
| 2026-05-08 04:24 | 32.74475 | -117.20257 | 1035 ft | 116 kts | 68° |
| 2026-05-08 04:25 | 32.74703 | -117.19214 | 911 ft | 136 kts | 76° |
| 2026-05-08 04:25 | 32.74843 | -117.18112 | 878 ft | 139 kts | 87° |
| 2026-05-08 04:25 | 32.74834 | -117.17003 | 1041 ft | 127 kts | 93° |
| 2026-05-08 04:25 | 32.74733 | -117.15991 | 1216 ft | 124 kts | 105° |
| 2026-05-08 04:26 | 32.74151 | -117.15197 | 1103 ft | 138 kts | 151° |
| 2026-05-08 04:26 | 32.73239 | -117.15005 | 1072 ft | 135 kts | 179° |
| 2026-05-08 04:26 | 32.72362 | -117.15260 | 866 ft | 123 kts | 238° |
| 2026-05-08 04:26 | 32.72520 | -117.16136 | 627 ft | 105 kts | 296° |
| 2026-05-08 04:27 | 32.72821 | -117.16833 | 337 ft | 92 kts | 294° |
| 2026-05-08 04:27 | 32.72990 | -117.17486 | 162 ft | 75 kts | 285° |
| 2026-05-08 04:27 | 32.73139 | -117.18071 | 62 ft | 70 kts | 287° |
| 2026-05-08 04:27 | 32.73254 | -117.18554 | 21 ft | 53 kts | 284° |
| 2026-05-08 04:28 | 32.73354 | -117.19007 | 94 ft | 67 kts | 284° |
| 2026-05-08 04:28 | 32.73506 | -117.19613 | 267 ft | 87 kts | 286° |
| 2026-05-08 04:28 | 32.73663 | -117.20314 | 535 ft | 97 kts | 284° |
| 2026-05-08 04:28 | 32.73936 | -117.21091 | 764 ft | 108 kts | 318° |
| 2026-05-08 04:29 | 32.74657 | -117.21143 | 890 ft | 128 kts | 41° |
| 2026-05-08 04:29 | 32.74994 | -117.20108 | 908 ft | 139 kts | 82° |
| 2026-05-08 04:29 | 32.75020 | -117.18929 | 821 ft | 154 kts | 98° |
| 2026-05-08 04:29 | 32.74771 | -117.17741 | 788 ft | 136 kts | 106° |
| 2026-05-08 04:30 | 32.74515 | -117.16768 | 803 ft | 118 kts | 108° |
| 2026-05-08 04:30 | 32.74264 | -117.15880 | 803 ft | 107 kts | 111° |
| 2026-05-08 04:30 | 32.73997 | -117.15159 | 966 ft | 87 kts | 136° |
| 2026-05-08 04:30 | 32.73461 | -117.15077 | 954 ft | 88 kts | 188° |
| 2026-05-08 04:31 | 32.72811 | -117.15239 | 749 ft | 102 kts | 225° |
| 2026-05-08 04:31 | 32.72640 | -117.16019 | 599 ft | 102 kts | 289° |
| 2026-05-08 04:31 | 32.72829 | -117.16766 | 454 ft | 92 kts | 285° |
| 2026-05-08 04:31 | 32.72994 | -117.17461 | 151 ft | 81 kts | 286° |
| 2026-05-08 04:32 | 32.73134 | -117.18051 | 73 ft | 77 kts | 285° |
| 2026-05-08 04:32 | 32.73264 | -117.18596 | 29 ft | 59 kts | 285° |
| 2026-05-08 04:32 | 32.73377 | -117.19038 | 95 ft | 60 kts | 284° |
| 2026-05-08 04:32 | 32.73484 | -117.19590 | 335 ft | 69 kts | 279° |
| 2026-05-08 04:33 | 32.73596 | -117.20259 | 526 ft | 87 kts | 285° |
| 2026-05-08 04:33 | 32.73852 | -117.20854 | 916 ft | 77 kts | 317° |
| 2026-05-08 04:33 | 32.74406 | -117.20933 | 1100 ft | 95 kts | 9° |
| 2026-05-08 04:33 | 32.74919 | -117.20519 | 1363 ft | 101 kts | 58° |
| 2026-05-08 04:34 | 32.75042 | -117.19592 | 1279 ft | 129 kts | 93° |
| 2026-05-08 04:34 | 32.74914 | -117.18615 | 1012 ft | 111 kts | 104° |
| 2026-05-08 04:34 | 32.74705 | -117.17785 | 908 ft | 105 kts | 109° |
| 2026-05-08 04:34 | 32.74441 | -117.17010 | 943 ft | 99 kts | 137° |
| 2026-05-08 04:35 | 32.73744 | -117.16795 | 675 ft | 116 kts | 181° |
| 2026-05-08 04:35 | 32.72929 | -117.16847 | 535 ft | 112 kts | 180° |
| 2026-05-08 04:35 | 32.72394 | -117.16380 | 576 ft | 102 kts | 101° |
| 2026-05-08 04:35 | 32.72718 | -117.16103 | 488 ft | 70 kts | 287° |
| 2026-05-08 04:36 | 32.72797 | -117.16737 | 302 ft | 85 kts | 284° |
| 2026-05-08 04:36 | 32.72960 | -117.17394 | 159 ft | 77 kts | 287° |
| 2026-05-08 04:36 | 32.73110 | -117.17968 | 68 ft | 70 kts | 286° |
| 2026-05-08 04:36 | 32.73235 | -117.18464 | 21 ft | 54 kts | 287° |
| 2026-05-08 04:37 | 32.73329 | -117.18802 | 18 ft | 21 kts | 4° |
| 2026-05-08 04:37 | 32.73419 | -117.18788 | 17 ft | 6 kts | 56° |
| 2026-05-08 04:37 | 32.73401 | -117.18673 | 17 ft | 21 kts | 103° |
| 2026-05-08 04:37 | 32.73457 | -117.18578 | 18 ft | 16 kts | 295° |
| 2026-05-08 04:38 | 32.73470 | -117.18614 | 18 ft | 0 kts | 319° |